sensor_id;sensor_type;location;lat;lon;timestamp;pressure;altitude;pressure_sealevel;temperature;humidity
55010;BME280;40903;51.638;7.528;2023-05-03T00:00:43;102272.91;;;4.39;100.00
55010;BME280;40903;51.638;7.528;2023-05-03T00:03:08;102266.88;;;4.37;100.00
55010;BME280;40903;51.638;7.528;2023-05-03T00:05:34;102260.63;;;4.36;100.00
55010;BME280;40903;51.638;7.528;2023-05-03T00:07:59;102264.81;;;4.32;100.00
55010;BME280;40903;51.638;7.528;2023-05-03T00:10:25;102265.25;;;4.29;100.00
55010;BME280;40903;51.638;7.528;2023-05-03T00:12:50;102260.88;;;4.28;100.00
55010;BME280;40903;51.638;7.528;2023-05-03T00:15:16;102260.47;;;4.25;100.00
55010;BME280;40903;51.638;7.528;2023-05-03T00:17:41;102257.97;;;4.23;100.00
55010;BME280;40903;51.638;7.528;2023-05-03T00:20:07;102259.44;;;4.19;100.00
55010;BME280;40903;51.638;7.528;2023-05-03T00:22:32;102266.69;;;4.19;100.00
55010;BME280;40903;51.638;7.528;2023-05-03T00:24:58;102257.38;;;4.15;100.00
55010;BME280;40903;51.638;7.528;2023-05-03T00:27:24;102255.28;;;4.10;100.00
55010;BME280;40903;51.638;7.528;2023-05-03T00:29:50;102258.41;;;4.07;100.00
55010;BME280;40903;51.638;7.528;2023-05-03T00:32:21;102254.50;;;4.03;100.00
55010;BME280;40903;51.638;7.528;2023-05-03T00:34:54;102248.66;;;4.00;100.00
55010;BME280;40903;51.638;7.528;2023-05-03T00:37:20;102244.50;;;3.97;100.00
55010;BME280;40903;51.638;7.528;2023-05-03T00:39:45;102257.38;;;3.95;100.00
55010;BME280;40903;51.638;7.528;2023-05-03T00:42:10;102254.06;;;3.93;100.00
55010;BME280;40903;51.638;7.528;2023-05-03T00:44:36;102259.06;;;3.90;100.00
55010;BME280;40903;51.638;7.528;2023-05-03T00:47:02;102260.31;;;3.87;100.00
55010;BME280;40903;51.638;7.528;2023-05-03T00:49:27;102263.22;;;3.86;100.00
55010;BME280;40903;51.638;7.528;2023-05-03T00:51:53;102271.53;;;3.84;100.00
55010;BME280;40903;51.638;7.528;2023-05-03T00:54:19;102263.03;;;3.81;100.00
55010;BME280;40903;51.638;7.528;2023-05-03T00:56:45;102268.19;;;3.82;100.00
55010;BME280;40903;51.638;7.528;2023-05-03T00:59:11;102267.56;;;3.80;100.00
55010;BME280;40903;51.638;7.528;2023-05-03T01:01:37;102261.97;;;3.82;100.00
55010;BME280;40903;51.638;7.528;2023-05-03T01:04:04;102275.28;;;3.83;100.00
55010;BME280;40903;51.638;7.528;2023-05-03T01:09:16;102265.28;;;3.84;100.00
55010;BME280;40903;51.638;7.528;2023-05-03T01:11:59;102271.31;;;3.86;100.00
55010;BME280;40903;51.638;7.528;2023-05-03T01:14:44;102270.28;;;3.87;100.00
55010;BME280;40903;51.638;7.528;2023-05-03T01:17:11;102264.06;;;3.86;100.00
55010;BME280;40903;51.638;7.528;2023-05-03T01:19:47;102267.56;;;3.87;100.00
55010;BME280;40903;51.638;7.528;2023-05-03T01:27:30;102272.78;;;3.88;100.00
55010;BME280;40903;51.638;7.528;2023-05-03T01:29:55;102269.84;;;3.90;100.00
55010;BME280;40903;51.638;7.528;2023-05-03T01:32:28;102278.97;;;3.89;100.00
55010;BME280;40903;51.638;7.528;2023-05-03T01:35:03;102276.28;;;3.89;100.00
55010;BME280;40903;51.638;7.528;2023-05-03T01:37:32;102272.16;;;3.86;100.00
55010;BME280;40903;51.638;7.528;2023-05-03T01:40:01;102278.59;;;3.85;100.00
55010;BME280;40903;51.638;7.528;2023-05-03T01:42:29;102276.94;;;3.84;100.00
55010;BME280;40903;51.638;7.528;2023-05-03T01:44:56;102278.16;;;3.82;100.00
55010;BME280;40903;51.638;7.528;2023-05-03T01:47:22;102290.81;;;3.81;100.00
55010;BME280;40903;51.638;7.528;2023-05-03T01:49:48;102284.81;;;3.79;100.00
55010;BME280;40903;51.638;7.528;2023-05-03T01:52:13;102296.00;;;3.77;100.00
55010;BME280;40903;51.638;7.528;2023-05-03T01:54:38;102287.50;;;3.73;100.00
55010;BME280;40903;51.638;7.528;2023-05-03T01:57:04;102291.47;;;3.71;100.00
55010;BME280;40903;51.638;7.528;2023-05-03T01:59:29;102287.91;;;3.70;100.00
55010;BME280;40903;51.638;7.528;2023-05-03T02:01:54;102291.84;;;3.68;100.00
55010;BME280;40903;51.638;7.528;2023-05-03T02:04:20;102284.19;;;3.65;100.00
55010;BME280;40903;51.638;7.528;2023-05-03T02:06:45;102296.41;;;3.61;100.00
55010;BME280;40903;51.638;7.528;2023-05-03T02:09:11;102293.31;;;3.57;100.00
55010;BME280;40903;51.638;7.528;2023-05-03T02:11:36;102302.66;;;3.55;100.00
55010;BME280;40903;51.638;7.528;2023-05-03T02:14:01;102302.22;;;3.51;100.00
55010;BME280;40903;51.638;7.528;2023-05-03T02:16:27;102299.72;;;3.50;100.00
55010;BME280;40903;51.638;7.528;2023-05-03T02:18:53;102300.13;;;3.47;100.00
55010;BME280;40903;51.638;7.528;2023-05-03T02:21:19;102304.91;;;3.45;100.00
55010;BME280;40903;51.638;7.528;2023-05-03T02:23:45;102316.31;;;3.40;100.00
55010;BME280;40903;51.638;7.528;2023-05-03T02:26:10;102313.00;;;3.38;100.00
55010;BME280;40903;51.638;7.528;2023-05-03T02:28:35;102316.91;;;3.36;100.00
55010;BME280;40903;51.638;7.528;2023-05-03T02:31:01;102319.22;;;3.32;100.00
55010;BME280;40903;51.638;7.528;2023-05-03T02:33:26;102322.09;;;3.31;100.00
55010;BME280;40903;51.638;7.528;2023-05-03T02:35:52;102327.06;;;3.27;100.00
55010;BME280;40903;51.638;7.528;2023-05-03T02:38:17;102329.13;;;3.25;100.00
55010;BME280;40903;51.638;7.528;2023-05-03T02:40:42;102329.53;;;3.22;100.00
55010;BME280;40903;51.638;7.528;2023-05-03T02:43:08;102335.34;;;3.19;100.00
55010;BME280;40903;51.638;7.528;2023-05-03T02:45:36;102331.00;;;3.18;100.00
55010;BME280;40903;51.638;7.528;2023-05-03T02:48:02;102326.81;;;3.16;100.00
55010;BME280;40903;51.638;7.528;2023-05-03T02:50:27;102321.84;;;3.13;100.00
55010;BME280;40903;51.638;7.528;2023-05-03T02:52:52;102312.28;;;3.10;100.00
55010;BME280;40903;51.638;7.528;2023-05-03T02:55:18;102327.84;;;3.08;100.00
55010;BME280;40903;51.638;7.528;2023-05-03T02:57:43;102320.78;;;3.07;100.00
55010;BME280;40903;51.638;7.528;2023-05-03T03:00:09;102318.28;;;3.06;100.00
55010;BME280;40903;51.638;7.528;2023-05-03T03:02:35;102317.66;;;3.04;100.00
55010;BME280;40903;51.638;7.528;2023-05-03T03:05:01;102322.41;;;3.02;100.00
55010;BME280;40903;51.638;7.528;2023-05-03T03:07:26;102317.22;;;3.00;100.00
55010;BME280;40903;51.638;7.528;2023-05-03T03:09:51;102313.72;;;3.00;100.00
55010;BME280;40903;51.638;7.528;2023-05-03T03:12:17;102315.78;;;2.98;100.00
55010;BME280;40903;51.638;7.528;2023-05-03T03:14:42;102315.78;;;2.98;100.00
55010;BME280;40903;51.638;7.528;2023-05-03T03:17:10;102322.38;;;2.95;100.00
55010;BME280;40903;51.638;7.528;2023-05-03T03:19:36;102319.91;;;2.94;100.00
55010;BME280;40903;51.638;7.528;2023-05-03T03:22:01;102316.56;;;2.92;100.00
55010;BME280;40903;51.638;7.528;2023-05-03T03:24:26;102310.38;;;2.91;100.00
55010;BME280;40903;51.638;7.528;2023-05-03T03:26:51;102314.50;;;2.87;100.00
55010;BME280;40903;51.638;7.528;2023-05-03T03:29:17;102312.00;;;2.86;100.00
55010;BME280;40903;51.638;7.528;2023-05-03T03:31:42;102307.66;;;2.85;100.00
55010;BME280;40903;51.638;7.528;2023-05-03T03:34:08;102310.53;;;2.83;100.00
55010;BME280;40903;51.638;7.528;2023-05-03T03:36:33;102306.38;;;2.81;100.00
55010;BME280;40903;51.638;7.528;2023-05-03T03:38:59;102301.19;;;2.79;100.00
55010;BME280;40903;51.638;7.528;2023-05-03T03:41:24;102302.41;;;2.77;100.00
55010;BME280;40903;51.638;7.528;2023-05-03T03:43:49;102301.38;;;2.71;100.00
55010;BME280;40903;51.638;7.528;2023-05-03T03:46:15;102298.03;;;2.69;100.00
55010;BME280;40903;51.638;7.528;2023-05-03T03:48:40;102298.88;;;2.70;100.00
55010;BME280;40903;51.638;7.528;2023-05-03T03:51:06;102299.06;;;2.68;100.00
55010;BME280;40903;51.638;7.528;2023-05-03T03:53:31;102303.81;;;2.66;100.00
55010;BME280;40903;51.638;7.528;2023-05-03T03:55:57;102304.03;;;2.65;100.00
55010;BME280;40903;51.638;7.528;2023-05-03T03:58:22;102297.00;;;2.64;100.00
55010;BME280;40903;51.638;7.528;2023-05-03T04:00:47;102292.00;;;2.61;100.00
55010;BME280;40903;51.638;7.528;2023-05-03T04:03:14;102296.34;;;2.62;100.00
55010;BME280;40903;51.638;7.528;2023-05-03T04:05:39;102292.00;;;2.61;100.00
55010;BME280;40903;51.638;7.528;2023-05-03T04:08:05;102293.03;;;2.60;100.00
55010;BME280;40903;51.638;7.528;2023-05-03T04:10:30;102288.66;;;2.59;100.00
55010;BME280;40903;51.638;7.528;2023-05-03T04:12:56;102290.31;;;2.60;100.00
55010;BME280;40903;51.638;7.528;2023-05-03T04:15:21;102295.72;;;2.60;100.00
55010;BME280;40903;51.638;7.528;2023-05-03T04:17:46;102287.63;;;2.60;100.00
55010;BME280;40903;51.638;7.528;2023-05-03T04:20:13;102292.00;;;2.61;100.00
55010;BME280;40903;51.638;7.528;2023-05-03T04:22:38;102289.91;;;2.63;100.00
55010;BME280;40903;51.638;7.528;2023-05-03T04:25:05;102287.22;;;2.63;100.00
55010;BME280;40903;51.638;7.528;2023-05-03T04:27:32;102291.38;;;2.65;100.00
55010;BME280;40903;51.638;7.528;2023-05-03T04:29:58;102289.31;;;2.67;100.00
55010;BME280;40903;51.638;7.528;2023-05-03T04:32:24;102283.75;;;2.69;100.00
55010;BME280;40903;51.638;7.528;2023-05-03T04:34:49;102281.50;;;2.72;100.00
55010;BME280;40903;51.638;7.528;2023-05-03T04:37:17;102285.63;;;2.75;100.00
55010;BME280;40903;51.638;7.528;2023-05-03T04:39:43;102283.19;;;2.80;100.00
55010;BME280;40903;51.638;7.528;2023-05-03T04:42:10;102270.97;;;2.84;100.00
55010;BME280;40903;51.638;7.528;2023-05-03T04:44:36;102268.72;;;2.87;100.00
55010;BME280;40903;51.638;7.528;2023-05-03T04:47:01;102275.13;;;2.93;100.00
55010;BME280;40903;51.638;7.528;2023-05-03T04:49:26;102278.88;;;2.98;100.00
55010;BME280;40903;51.638;7.528;2023-05-03T04:51:52;102280.97;;;3.03;100.00
55010;BME280;40903;51.638;7.528;2023-05-03T04:54:17;102278.47;;;3.08;100.00
55010;BME280;40903;51.638;7.528;2023-05-03T04:56:42;102281.41;;;3.13;100.00
55010;BME280;40903;51.638;7.528;2023-05-03T04:59:08;102284.31;;;3.18;100.00
55010;BME280;40903;51.638;7.528;2023-05-03T05:01:33;102293.03;;;3.26;100.00
55010;BME280;40903;51.638;7.528;2023-05-03T05:03:59;102297.41;;;3.34;100.00
55010;BME280;40903;51.638;7.528;2023-05-03T05:06:24;102308.03;;;3.42;100.00
55010;BME280;40903;51.638;7.528;2023-05-03T05:08:50;102312.41;;;3.49;100.00
55010;BME280;40903;51.638;7.528;2023-05-03T05:11:15;102312.19;;;3.57;100.00
55010;BME280;40903;51.638;7.528;2023-05-03T05:13:41;102312.41;;;3.69;100.00
55010;BME280;40903;51.638;7.528;2023-05-03T05:16:06;102315.09;;;3.81;100.00
55010;BME280;40903;51.638;7.528;2023-05-03T05:18:31;102312.41;;;3.94;100.00
55010;BME280;40903;51.638;7.528;2023-05-03T05:20:57;102315.53;;;4.11;100.00
55010;BME280;40903;51.638;7.528;2023-05-03T05:23:22;102319.25;;;4.29;100.00
55010;BME280;40903;51.638;7.528;2023-05-03T05:25:47;102326.25;;;4.50;100.00
55010;BME280;40903;51.638;7.528;2023-05-03T05:28:13;102323.91;;;4.66;100.00
55010;BME280;40903;51.638;7.528;2023-05-03T05:30:38;102324.91;;;4.78;100.00
55010;BME280;40903;51.638;7.528;2023-05-03T05:33:03;102321.13;;;4.92;100.00
55010;BME280;40903;51.638;7.528;2023-05-03T05:35:29;102326.25;;;5.07;100.00
55010;BME280;40903;51.638;7.528;2023-05-03T05:37:54;102323.88;;;5.23;100.00
55010;BME280;40903;51.638;7.528;2023-05-03T05:40:20;102325.47;;;5.37;100.00
55010;BME280;40903;51.638;7.528;2023-05-03T05:42:45;102332.69;;;5.50;100.00
55010;BME280;40903;51.638;7.528;2023-05-03T05:45:12;102337.81;;;5.64;100.00
55010;BME280;40903;51.638;7.528;2023-05-03T05:47:37;102346.47;;;5.79;100.00
55010;BME280;40903;51.638;7.528;2023-05-03T05:50:03;102351.94;;;5.97;100.00
55010;BME280;40903;51.638;7.528;2023-05-03T05:52:28;102353.06;;;6.14;100.00
55010;BME280;40903;51.638;7.528;2023-05-03T05:54:53;102360.00;;;6.28;100.00
55010;BME280;40903;51.638;7.528;2023-05-03T05:57:18;102359.66;;;6.42;100.00
55010;BME280;40903;51.638;7.528;2023-05-03T05:59:44;102363.44;;;6.59;100.00
55010;BME280;40903;51.638;7.528;2023-05-03T06:02:11;102360.38;;;6.74;100.00
55010;BME280;40903;51.638;7.528;2023-05-03T06:04:38;102362.94;;;6.87;100.00
55010;BME280;40903;51.638;7.528;2023-05-03T06:07:03;102365.50;;;7.00;100.00
55010;BME280;40903;51.638;7.528;2023-05-03T06:09:28;102359.91;;;7.13;100.00
55010;BME280;40903;51.638;7.528;2023-05-03T06:11:53;102367.06;;;7.25;98.74
55010;BME280;40903;51.638;7.528;2023-05-03T06:14:18;102367.72;;;7.39;97.91
55010;BME280;40903;51.638;7.528;2023-05-03T06:16:44;102370.03;;;7.53;95.66
55010;BME280;40903;51.638;7.528;2023-05-03T06:19:10;102361.91;;;7.65;95.36
55010;BME280;40903;51.638;7.528;2023-05-03T06:21:35;102365.63;;;7.81;95.26
55010;BME280;40903;51.638;7.528;2023-05-03T06:24:00;102367.69;;;7.97;94.43
55010;BME280;40903;51.638;7.528;2023-05-03T06:26:26;102371.16;;;8.16;93.85
55010;BME280;40903;51.638;7.528;2023-05-03T06:28:51;102375.91;;;8.32;91.93
55010;BME280;40903;51.638;7.528;2023-05-03T06:31:16;102374.75;;;8.51;91.18
55010;BME280;40903;51.638;7.528;2023-05-03T06:33:42;102376.75;;;8.67;90.21
55010;BME280;40903;51.638;7.528;2023-05-03T06:36:07;102380.06;;;8.80;85.38
55010;BME280;40903;51.638;7.528;2023-05-03T06:38:33;102377.53;;;8.90;85.86
55010;BME280;40903;51.638;7.528;2023-05-03T06:40:58;102383.00;;;9.02;83.50
55010;BME280;40903;51.638;7.528;2023-05-03T06:43:23;102373.16;;;9.12;81.74
55010;BME280;40903;51.638;7.528;2023-05-03T06:45:49;102374.09;;;9.18;81.91
55010;BME280;40903;51.638;7.528;2023-05-03T06:48:15;102369.53;;;9.35;83.04
55010;BME280;40903;51.638;7.528;2023-05-03T06:50:40;102369.56;;;9.51;81.79
55010;BME280;40903;51.638;7.528;2023-05-03T06:53:05;102373.16;;;9.68;81.18
55010;BME280;40903;51.638;7.528;2023-05-03T06:55:30;102360.81;;;9.77;77.26
55010;BME280;40903;51.638;7.528;2023-05-03T06:57:57;102370.31;;;9.91;76.42
55010;BME280;40903;51.638;7.528;2023-05-03T07:00:22;102369.38;;;10.13;76.08
55010;BME280;40903;51.638;7.528;2023-05-03T07:02:47;102367.66;;;10.24;74.56
55010;BME280;40903;51.638;7.528;2023-05-03T07:05:13;102374.94;;;10.35;74.11
55010;BME280;40903;51.638;7.528;2023-05-03T07:07:38;102375.25;;;10.38;68.96
55010;BME280;40903;51.638;7.528;2023-05-03T07:10:03;102372.09;;;10.46;70.45
55010;BME280;40903;51.638;7.528;2023-05-03T07:12:29;102375.56;;;10.58;69.28
55010;BME280;40903;51.638;7.528;2023-05-03T07:14:54;102368.63;;;10.67;72.60
55010;BME280;40903;51.638;7.528;2023-05-03T07:17:20;102374.34;;;10.87;69.67
55010;BME280;40903;51.638;7.528;2023-05-03T07:19:48;102372.44;;;10.88;68.90
55010;BME280;40903;51.638;7.528;2023-05-03T07:22:13;102372.41;;;11.04;67.88
55010;BME280;40903;51.638;7.528;2023-05-03T07:24:39;102367.19;;;11.24;69.06
55010;BME280;40903;51.638;7.528;2023-05-03T07:27:04;102376.22;;;11.25;64.97
55010;BME280;40903;51.638;7.528;2023-05-03T07:29:30;102375.75;;;11.11;63.37
55010;BME280;40903;51.638;7.528;2023-05-03T07:31:55;102376.09;;;11.15;63.25
55010;BME280;40903;51.638;7.528;2023-05-03T07:34:21;102371.75;;;11.40;64.37
55010;BME280;40903;51.638;7.528;2023-05-03T07:36:46;102359.69;;;11.58;66.54
55010;BME280;40903;51.638;7.528;2023-05-03T07:39:11;102356.59;;;11.75;64.07
55010;BME280;40903;51.638;7.528;2023-05-03T07:41:36;102362.88;;;12.02;63.29
55010;BME280;40903;51.638;7.528;2023-05-03T07:44:02;102355.50;;;12.03;61.53
55010;BME280;40903;51.638;7.528;2023-05-03T07:46:27;102351.28;;;12.17;62.53
55010;BME280;40903;51.638;7.528;2023-05-03T07:48:52;102357.34;;;12.29;61.13
55010;BME280;40903;51.638;7.528;2023-05-03T07:51:18;102355.53;;;12.39;59.58
55010;BME280;40903;51.638;7.528;2023-05-03T07:53:43;102356.16;;;12.51;60.27
55010;BME280;40903;51.638;7.528;2023-05-03T07:56:09;102353.06;;;12.38;58.20
55010;BME280;40903;51.638;7.528;2023-05-03T07:58:35;102351.19;;;12.43;59.44
55010;BME280;40903;51.638;7.528;2023-05-03T08:01:02;102349.44;;;12.69;59.44
55010;BME280;40903;51.638;7.528;2023-05-03T08:03:28;102352.53;;;12.82;56.61
55010;BME280;40903;51.638;7.528;2023-05-03T08:05:53;102348.44;;;12.90;56.39
55010;BME280;40903;51.638;7.528;2023-05-03T08:08:18;102348.59;;;13.10;56.60
55010;BME280;40903;51.638;7.528;2023-05-03T08:10:44;102341.84;;;13.42;59.77
55010;BME280;40903;51.638;7.528;2023-05-03T08:13:09;102337.00;;;13.74;57.81
55010;BME280;40903;51.638;7.528;2023-05-03T08:15:35;102342.53;;;13.94;54.28
55010;BME280;40903;51.638;7.528;2023-05-03T08:18:00;102354.56;;;14.03;52.33
55010;BME280;40903;51.638;7.528;2023-05-03T08:20:26;102351.03;;;14.07;53.26
55010;BME280;40903;51.638;7.528;2023-05-03T08:22:51;102351.84;;;13.98;50.41
55010;BME280;40903;51.638;7.528;2023-05-03T08:25:20;102346.06;;;13.89;53.18
55010;BME280;40903;51.638;7.528;2023-05-03T08:27:48;102348.22;;;13.63;52.32
55010;BME280;40903;51.638;7.528;2023-05-03T08:30:14;102339.22;;;13.97;54.33
55010;BME280;40903;51.638;7.528;2023-05-03T08:32:39;102341.97;;;14.07;53.01
55010;BME280;40903;51.638;7.528;2023-05-03T08:35:05;102352.09;;;14.11;48.20
55010;BME280;40903;51.638;7.528;2023-05-03T08:37:36;102343.88;;;14.11;50.24
55010;BME280;40903;51.638;7.528;2023-05-03T08:40:01;102339.19;;;13.87;51.59
55010;BME280;40903;51.638;7.528;2023-05-03T08:42:29;102334.81;;;13.66;52.93
55010;BME280;40903;51.638;7.528;2023-05-03T08:44:57;102334.56;;;13.87;53.99
55010;BME280;40903;51.638;7.528;2023-05-03T08:47:22;102334.59;;;14.17;55.04
55010;BME280;40903;51.638;7.528;2023-05-03T08:49:48;102343.34;;;14.49;50.75
55010;BME280;40903;51.638;7.528;2023-05-03T08:52:15;102341.63;;;14.88;51.24
55010;BME280;40903;51.638;7.528;2023-05-03T08:54:42;102359.22;;;14.77;47.03
55010;BME280;40903;51.638;7.528;2023-05-03T08:57:10;102355.03;;;15.05;50.50
55010;BME280;40903;51.638;7.528;2023-05-03T08:59:47;102349.47;;;15.20;48.49
55010;BME280;40903;51.638;7.528;2023-05-03T09:02:13;102354.66;;;15.26;48.21
55010;BME280;40903;51.638;7.528;2023-05-03T09:04:38;102353.34;;;15.72;48.60
55010;BME280;40903;51.638;7.528;2023-05-03T09:07:07;102356.88;;;15.77;48.84
55010;BME280;40903;51.638;7.528;2023-05-03T09:09:32;102350.09;;;16.03;48.73
55010;BME280;40903;51.638;7.528;2023-05-03T09:11:57;102354.03;;;15.92;44.93
55010;BME280;40903;51.638;7.528;2023-05-03T09:14:23;102348.47;;;15.97;45.23
55010;BME280;40903;51.638;7.528;2023-05-03T09:16:48;102342.19;;;16.30;49.28
55010;BME280;40903;51.638;7.528;2023-05-03T09:19:14;102340.56;;;15.91;44.73
55010;BME280;40903;51.638;7.528;2023-05-03T09:21:40;102331.94;;;16.02;45.80
55010;BME280;40903;51.638;7.528;2023-05-03T09:24:13;102329.84;;;16.23;45.56
55010;BME280;40903;51.638;7.528;2023-05-03T09:26:39;102328.84;;;16.42;46.94
55010;BME280;40903;51.638;7.528;2023-05-03T09:29:05;102336.78;;;16.49;43.68
55010;BME280;40903;51.638;7.528;2023-05-03T09:31:31;102344.97;;;16.25;44.45
55010;BME280;40903;51.638;7.528;2023-05-03T09:33:56;102327.94;;;16.52;43.86
55010;BME280;40903;51.638;7.528;2023-05-03T09:36:22;102330.84;;;16.65;44.13
55010;BME280;40903;51.638;7.528;2023-05-03T09:38:48;102323.94;;;16.68;44.73
55010;BME280;40903;51.638;7.528;2023-05-03T09:41:14;102326.38;;;16.69;46.05
55010;BME280;40903;51.638;7.528;2023-05-03T09:43:49;102325.78;;;16.72;45.94
55010;BME280;40903;51.638;7.528;2023-05-03T09:46:15;102324.22;;;16.90;44.47
55010;BME280;40903;51.638;7.528;2023-05-03T09:48:40;102321.22;;;16.86;44.33
55010;BME280;40903;51.638;7.528;2023-05-03T09:51:06;102318.06;;;16.74;44.82
55010;BME280;40903;51.638;7.528;2023-05-03T09:53:32;102319.28;;;17.10;44.21
55010;BME280;40903;51.638;7.528;2023-05-03T09:55:58;102318.63;;;17.18;43.47
55010;BME280;40903;51.638;7.528;2023-05-03T09:58:23;102318.25;;;17.06;42.14
55010;BME280;40903;51.638;7.528;2023-05-03T10:00:50;102317.94;;;17.08;42.05
55010;BME280;40903;51.638;7.528;2023-05-03T10:03:21;102317.59;;;16.67;44.33
55010;BME280;40903;51.638;7.528;2023-05-03T10:05:49;102304.75;;;17.05;44.71
55010;BME280;40903;51.638;7.528;2023-05-03T10:08:18;102295.16;;;17.21;42.27
55010;BME280;40903;51.638;7.528;2023-05-03T10:10:48;102284.59;;;17.28;47.22
55010;BME280;40903;51.638;7.528;2023-05-03T10:13:15;102301.78;;;17.20;42.10
55010;BME280;40903;51.638;7.528;2023-05-03T10:15:41;102294.25;;;16.83;43.00
55010;BME280;40903;51.638;7.528;2023-05-03T10:18:09;102300.72;;;16.97;43.41
55010;BME280;40903;51.638;7.528;2023-05-03T10:20:40;102306.22;;;16.74;41.95
55010;BME280;40903;51.638;7.528;2023-05-03T10:23:08;102300.25;;;16.90;42.37
55010;BME280;40903;51.638;7.528;2023-05-03T10:25:35;102287.78;;;17.16;44.95
55010;BME280;40903;51.638;7.528;2023-05-03T10:28:01;102289.81;;;17.29;42.99
55010;BME280;40903;51.638;7.528;2023-05-03T10:30:28;102281.38;;;17.21;43.08
55010;BME280;40903;51.638;7.528;2023-05-03T10:32:55;102276.34;;;17.46;43.22
55010;BME280;40903;51.638;7.528;2023-05-03T10:35:20;102280.84;;;17.61;42.37
55010;BME280;40903;51.638;7.528;2023-05-03T10:37:50;102268.91;;;17.65;40.55
55010;BME280;40903;51.638;7.528;2023-05-03T10:40:16;102274.84;;;17.72;39.80
55010;BME280;40903;51.638;7.528;2023-05-03T10:42:45;102278.66;;;17.76;40.06
55010;BME280;40903;51.638;7.528;2023-05-03T10:45:20;102269.38;;;17.85;40.65
55010;BME280;40903;51.638;7.528;2023-05-03T10:50:30;102270.50;;;18.16;40.32
55010;BME280;40903;51.638;7.528;2023-05-03T10:52:55;102269.69;;;18.16;38.08
55010;BME280;40903;51.638;7.528;2023-05-03T10:55:21;102263.59;;;18.32;39.95
55010;BME280;40903;51.638;7.528;2023-05-03T10:57:48;102264.09;;;18.02;39.85
55010;BME280;40903;51.638;7.528;2023-05-03T11:00:21;102260.66;;;17.97;39.76
55010;BME280;40903;51.638;7.528;2023-05-03T11:05:18;102261.50;;;18.11;40.64
55010;BME280;40903;51.638;7.528;2023-05-03T11:07:44;102267.84;;;17.61;39.13
55010;BME280;40903;51.638;7.528;2023-05-03T11:10:18;102253.19;;;17.79;40.34
55010;BME280;40903;51.638;7.528;2023-05-03T11:12:44;102259.56;;;17.80;38.25
55010;BME280;40903;51.638;7.528;2023-05-03T11:15:09;102249.22;;;18.03;41.05
55010;BME280;40903;51.638;7.528;2023-05-03T11:17:36;102240.00;;;18.08;40.14
55010;BME280;40903;51.638;7.528;2023-05-03T11:20:04;102235.53;;;18.25;40.94
55010;BME280;40903;51.638;7.528;2023-05-03T11:22:32;102234.53;;;18.21;40.13
55010;BME280;40903;51.638;7.528;2023-05-03T11:24:57;102238.09;;;18.22;38.53
55010;BME280;40903;51.638;7.528;2023-05-03T11:27:23;102242.13;;;18.29;39.53
55010;BME280;40903;51.638;7.528;2023-05-03T11:29:48;102241.44;;;18.37;38.60
55010;BME280;40903;51.638;7.528;2023-05-03T11:32:14;102251.03;;;18.40;37.38
55010;BME280;40903;51.638;7.528;2023-05-03T11:34:40;102239.97;;;18.40;39.57
55010;BME280;40903;51.638;7.528;2023-05-03T11:37:06;102238.59;;;18.56;40.11
55010;BME280;40903;51.638;7.528;2023-05-03T11:39:32;102235.00;;;18.55;38.17
55010;BME280;40903;51.638;7.528;2023-05-03T11:42:01;102229.53;;;18.77;38.46
55010;BME280;40903;51.638;7.528;2023-05-03T11:44:27;102226.47;;;18.92;37.74
55010;BME280;40903;51.638;7.528;2023-05-03T11:46:52;102224.13;;;18.86;40.72
55010;BME280;40903;51.638;7.528;2023-05-03T11:49:18;102223.69;;;19.06;39.35
55010;BME280;40903;51.638;7.528;2023-05-03T11:51:44;102228.75;;;18.77;37.92
55010;BME280;40903;51.638;7.528;2023-05-03T11:54:10;102222.41;;;18.63;38.07
55010;BME280;40903;51.638;7.528;2023-05-03T11:56:35;102228.94;;;18.80;39.01
55010;BME280;40903;51.638;7.528;2023-05-03T11:59:01;102225.34;;;18.53;37.28
55010;BME280;40903;51.638;7.528;2023-05-03T12:01:27;102229.66;;;18.45;36.57
55010;BME280;40903;51.638;7.528;2023-05-03T12:03:59;102228.88;;;18.26;37.91
55010;BME280;40903;51.638;7.528;2023-05-03T12:06:25;102229.44;;;18.28;40.75
55010;BME280;40903;51.638;7.528;2023-05-03T12:08:54;102224.84;;;18.51;37.89
55010;BME280;40903;51.638;7.528;2023-05-03T12:11:20;102236.84;;;18.60;37.76
55010;BME280;40903;51.638;7.528;2023-05-03T12:13:46;102226.91;;;18.72;37.59
55010;BME280;40903;51.638;7.528;2023-05-03T12:16:19;102222.72;;;18.75;37.43
55010;BME280;40903;51.638;7.528;2023-05-03T12:18:49;102216.44;;;18.96;39.19
55010;BME280;40903;51.638;7.528;2023-05-03T12:21:14;102220.41;;;19.04;36.96
55010;BME280;40903;51.638;7.528;2023-05-03T12:23:40;102220.00;;;19.10;38.59
55010;BME280;40903;51.638;7.528;2023-05-03T12:26:06;102212.63;;;19.19;38.70
55010;BME280;40903;51.638;7.528;2023-05-03T12:28:31;102214.66;;;19.27;36.77
55010;BME280;40903;51.638;7.528;2023-05-03T12:30:57;102210.59;;;19.47;37.20
55010;BME280;40903;51.638;7.528;2023-05-03T12:33:23;102191.97;;;19.83;38.25
55010;BME280;40903;51.638;7.528;2023-05-03T12:35:48;102203.59;;;19.93;35.66
55010;BME280;40903;51.638;7.528;2023-05-03T12:38:14;102199.22;;;20.00;36.96
55010;BME280;40903;51.638;7.528;2023-05-03T12:40:40;102206.72;;;20.00;36.56
55010;BME280;40903;51.638;7.528;2023-05-03T12:43:05;102218.31;;;19.80;35.39
55010;BME280;40903;51.638;7.528;2023-05-03T12:45:30;102203.34;;;19.81;36.91
55010;BME280;40903;51.638;7.528;2023-05-03T12:47:56;102202.53;;;19.81;36.99
55010;BME280;40903;51.638;7.528;2023-05-03T12:50:21;102200.50;;;19.94;37.40
55010;BME280;40903;51.638;7.528;2023-05-03T12:52:48;102201.78;;;19.67;35.87
55010;BME280;40903;51.638;7.528;2023-05-03T12:55:13;102199.09;;;19.53;35.25
55010;BME280;40903;51.638;7.528;2023-05-03T12:57:38;102178.38;;;19.51;40.29